sensor_id;sensor_type;location;lat;lon;timestamp;pressure;altitude;pressure_sealevel;temperature;humidity
76627;BME280;65519;53.230;10.390;2023-02-28T00:01:12;102835.44;;;-0.21;73.84
76627;BME280;65519;53.230;10.390;2023-02-28T00:03:38;102841.66;;;-0.30;73.56
76627;BME280;65519;53.230;10.390;2023-02-28T00:06:04;102836.25;;;-0.57;74.16
76627;BME280;65519;53.230;10.390;2023-02-28T00:08:31;102836.97;;;-0.75;74.85
76627;BME280;65519;53.230;10.390;2023-02-28T00:11:04;102837.81;;;-0.55;74.98
76627;BME280;65519;53.230;10.390;2023-02-28T00:13:30;102836.50;;;-0.51;74.42
76627;BME280;65519;53.230;10.390;2023-02-28T00:16:04;102841.88;;;-0.60;74.71
76627;BME280;65519;53.230;10.390;2023-02-28T00:18:31;102842.47;;;-0.66;74.69
76627;BME280;65519;53.230;10.390;2023-02-28T00:20:57;102839.75;;;-0.47;74.74
76627;BME280;65519;53.230;10.390;2023-02-28T00:23:23;102851.19;;;-0.84;75.64
76627;BME280;65519;53.230;10.390;2023-02-28T00:25:48;102846.16;;;-0.87;75.78
76627;BME280;65519;53.230;10.390;2023-02-28T00:28:13;102842.63;;;-0.78;75.15
76627;BME280;65519;53.230;10.390;2023-02-28T00:30:39;102844.31;;;-0.77;75.16
76627;BME280;65519;53.230;10.390;2023-02-28T00:33:05;102842.91;;;-0.81;75.40
76627;BME280;65519;53.230;10.390;2023-02-28T00:35:30;102837.09;;;-0.86;75.42
76627;BME280;65519;53.230;10.390;2023-02-28T00:37:55;102840.22;;;-0.81;75.51
76627;BME280;65519;53.230;10.390;2023-02-28T00:40:21;102841.47;;;-0.65;75.30
76627;BME280;65519;53.230;10.390;2023-02-28T00:42:46;102834.84;;;-0.61;74.32
76627;BME280;65519;53.230;10.390;2023-02-28T00:45:12;102845.00;;;-1.13;76.35
76627;BME280;65519;53.230;10.390;2023-02-28T00:47:37;102849.25;;;-1.01;76.82
76627;BME280;65519;53.230;10.390;2023-02-28T00:50:03;102849.09;;;-0.90;76.04
76627;BME280;65519;53.230;10.390;2023-02-28T00:52:29;102843.88;;;-0.91;76.13
76627;BME280;65519;53.230;10.390;2023-02-28T00:54:55;102845.44;;;-0.89;75.91
76627;BME280;65519;53.230;10.390;2023-02-28T00:57:20;102855.69;;;-0.75;75.59
76627;BME280;65519;53.230;10.390;2023-02-28T00:59:46;102854.72;;;-0.74;74.90
76627;BME280;65519;53.230;10.390;2023-02-28T01:02:11;102851.91;;;-0.82;75.42
76627;BME280;65519;53.230;10.390;2023-02-28T01:04:37;102857.09;;;-0.51;74.13
76627;BME280;65519;53.230;10.390;2023-02-28T01:07:02;102857.97;;;-0.70;74.49
76627;BME280;65519;53.230;10.390;2023-02-28T01:09:28;102858.25;;;-0.83;75.48
76627;BME280;65519;53.230;10.390;2023-02-28T01:11:53;102858.38;;;-0.75;74.93
76627;BME280;65519;53.230;10.390;2023-02-28T01:14:19;102854.44;;;-0.70;74.56
76627;BME280;65519;53.230;10.390;2023-02-28T01:16:44;102861.78;;;-0.82;75.31
76627;BME280;65519;53.230;10.390;2023-02-28T01:19:10;102863.06;;;-0.77;75.23
76627;BME280;65519;53.230;10.390;2023-02-28T01:21:35;102860.22;;;-0.85;75.58
76627;BME280;65519;53.230;10.390;2023-02-28T01:24:02;102858.13;;;-0.81;75.25
76627;BME280;65519;53.230;10.390;2023-02-28T01:26:27;102855.69;;;-0.75;75.39
76627;BME280;65519;53.230;10.390;2023-02-28T01:28:53;102863.06;;;-0.77;75.17
76627;BME280;65519;53.230;10.390;2023-02-28T01:31:19;102852.50;;;-0.88;75.54
76627;BME280;65519;53.230;10.390;2023-02-28T01:33:46;102853.59;;;-0.90;75.76
76627;BME280;65519;53.230;10.390;2023-02-28T01:36:14;102857.84;;;-0.97;75.67
76627;BME280;65519;53.230;10.390;2023-02-28T01:38:40;102857.53;;;-0.94;75.78
76627;BME280;65519;53.230;10.390;2023-02-28T01:41:07;102845.72;;;-0.92;75.30
76627;BME280;65519;53.230;10.390;2023-02-28T01:46:07;102838.41;;;-0.90;75.34
76627;BME280;65519;53.230;10.390;2023-02-28T01:48:36;102838.53;;;-0.82;75.07
76627;BME280;65519;53.230;10.390;2023-02-28T01:51:08;102841.78;;;-0.97;75.32
76627;BME280;65519;53.230;10.390;2023-02-28T01:53:42;102843.88;;;-1.11;75.70
76627;BME280;65519;53.230;10.390;2023-02-28T01:56:10;102840.50;;;-0.93;75.28
76627;BME280;65519;53.230;10.390;2023-02-28T01:58:37;102841.06;;;-1.09;75.65
76627;BME280;65519;53.230;10.390;2023-02-28T02:01:03;102832.91;;;-0.98;75.17
76627;BME280;65519;53.230;10.390;2023-02-28T02:03:30;102832.19;;;-1.00;74.26
76627;BME280;65519;53.230;10.390;2023-02-28T02:05:56;102845.28;;;-1.26;75.46
76627;BME280;65519;53.230;10.390;2023-02-28T02:08:24;102833.19;;;-1.30;75.20
76627;BME280;65519;53.230;10.390;2023-02-28T02:10:59;102844.28;;;-1.25;75.04
76627;BME280;65519;53.230;10.390;2023-02-28T02:36:00;102841.63;;;-1.25;74.84
76627;BME280;65519;53.230;10.390;2023-02-28T02:38:32;102843.16;;;-1.22;74.89
76627;BME280;65519;53.230;10.390;2023-02-28T02:41:08;102852.19;;;-1.23;74.71
76627;BME280;65519;53.230;10.390;2023-02-28T02:43:46;102843.72;;;-1.19;74.96
76627;BME280;65519;53.230;10.390;2023-02-28T02:46:33;102833.44;;;-1.33;74.73
76627;BME280;65519;53.230;10.390;2023-02-28T02:49:06;102842.00;;;-1.39;74.89
76627;BME280;65519;53.230;10.390;2023-02-28T02:51:35;102844.81;;;-1.40;74.57
76627;BME280;65519;53.230;10.390;2023-02-28T02:54:31;102847.19;;;-1.57;75.68
76627;BME280;65519;53.230;10.390;2023-02-28T02:57:01;102849.72;;;-1.55;75.05
76627;BME280;65519;53.230;10.390;2023-02-28T02:59:29;102838.59;;;-1.60;75.74
76627;BME280;65519;53.230;10.390;2023-02-28T03:01:59;102826.63;;;-1.66;75.85
76627;BME280;65519;53.230;10.390;2023-02-28T03:04:32;102836.94;;;-1.52;76.09
76627;BME280;65519;53.230;10.390;2023-02-28T03:07:00;102839.03;;;-1.45;76.35
76627;BME280;65519;53.230;10.390;2023-02-28T03:09:26;102838.47;;;-1.49;75.37
76627;BME280;65519;53.230;10.390;2023-02-28T03:11:54;102839.84;;;-1.74;75.97
76627;BME280;65519;53.230;10.390;2023-02-28T03:30:41;102852.19;;;-1.73;75.57
76627;BME280;65519;53.230;10.390;2023-02-28T03:33:30;102853.31;;;-1.85;75.89
76627;BME280;65519;53.230;10.390;2023-02-28T03:36:25;102842.06;;;-1.79;75.55
76627;BME280;65519;53.230;10.390;2023-02-28T03:38:58;102837.69;;;-1.80;75.64
76627;BME280;65519;53.230;10.390;2023-02-28T03:46:52;102845.00;;;-1.72;75.08
76627;BME280;65519;53.230;10.390;2023-02-28T03:49:25;102843.28;;;-1.83;74.89
76627;BME280;65519;53.230;10.390;2023-02-28T03:51:54;102840.50;;;-1.72;74.78
76627;BME280;65519;53.230;10.390;2023-02-28T03:54:28;102843.75;;;-1.78;74.93
76627;BME280;65519;53.230;10.390;2023-02-28T03:59:49;102853.31;;;-1.85;75.49
76627;BME280;65519;53.230;10.390;2023-02-28T04:02:17;102854.75;;;-1.62;74.50
76627;BME280;65519;53.230;10.390;2023-02-28T04:04:43;102848.84;;;-1.75;74.83
76627;BME280;65519;53.230;10.390;2023-02-28T04:07:11;102852.97;;;-1.92;75.08
76627;BME280;65519;53.230;10.390;2023-02-28T04:09:37;102853.31;;;-1.85;75.32
76627;BME280;65519;53.230;10.390;2023-02-28T04:12:03;102850.13;;;-2.00;75.98
76627;BME280;65519;53.230;10.390;2023-02-28T04:14:28;102848.72;;;-1.94;75.91
76627;BME280;65519;53.230;10.390;2023-02-28T04:16:53;102844.63;;;-1.68;75.46
76627;BME280;65519;53.230;10.390;2023-02-28T04:19:19;102852.63;;;-1.68;74.91
76627;BME280;65519;53.230;10.390;2023-02-28T04:21:51;102854.19;;;-1.75;74.73
76627;BME280;65519;53.230;10.390;2023-02-28T04:24:19;102856.75;;;-1.94;75.41
76627;BME280;65519;53.230;10.390;2023-02-28T04:26:47;102854.88;;;-2.03;75.63
76627;BME280;65519;53.230;10.390;2023-02-28T04:29:17;102852.94;;;-2.01;75.74
76627;BME280;65519;53.230;10.390;2023-02-28T04:31:54;102851.59;;;-1.86;74.63
76627;BME280;65519;53.230;10.390;2023-02-28T04:34:20;102854.38;;;-1.97;74.68
76627;BME280;65519;53.230;10.390;2023-02-28T04:36:46;102856.75;;;-1.94;74.02
76627;BME280;65519;53.230;10.390;2023-02-28T04:39:14;102860.16;;;-1.92;74.02
76627;BME280;65519;53.230;10.390;2023-02-28T04:41:39;102855.94;;;-2.15;75.25
76627;BME280;65519;53.230;10.390;2023-02-28T04:44:05;102860.78;;;-2.09;78.80
76627;BME280;65519;53.230;10.390;2023-02-28T04:46:30;102853.75;;;-2.10;77.58
76627;BME280;65519;53.230;10.390;2023-02-28T04:48:56;102864.22;;;-2.49;76.14
76627;BME280;65519;53.230;10.390;2023-02-28T04:51:21;102857.75;;;-2.67;76.98
76627;BME280;65519;53.230;10.390;2023-02-28T04:53:47;102859.56;;;-2.47;76.45
76627;BME280;65519;53.230;10.390;2023-02-28T04:56:15;102857.50;;;-2.43;75.72
76627;BME280;65519;53.230;10.390;2023-02-28T04:58:41;102853.16;;;-2.14;74.91
76627;BME280;65519;53.230;10.390;2023-02-28T05:01:25;102852.13;;;-2.23;74.82
76627;BME280;65519;53.230;10.390;2023-02-28T05:03:53;102856.50;;;-2.22;74.53
76627;BME280;65519;53.230;10.390;2023-02-28T05:06:19;102864.84;;;-2.05;74.09
76627;BME280;65519;53.230;10.390;2023-02-28T05:08:45;102867.16;;;-2.52;75.08
76627;BME280;65519;53.230;10.390;2023-02-28T05:11:23;102869.38;;;-2.27;74.30
76627;BME280;65519;53.230;10.390;2023-02-28T05:13:50;102862.75;;;-2.32;74.29
76627;BME280;65519;53.230;10.390;2023-02-28T05:16:16;102860.59;;;-2.17;74.24
76627;BME280;65519;53.230;10.390;2023-02-28T05:18:42;102873.56;;;-2.34;74.43
76627;BME280;65519;53.230;10.390;2023-02-28T05:23:52;102867.16;;;-2.52;74.63
76627;BME280;65519;53.230;10.390;2023-02-28T05:26:18;102871.44;;;-2.40;74.48
76627;BME280;65519;53.230;10.390;2023-02-28T05:28:43;102870.31;;;-2.37;74.02
76627;BME280;65519;53.230;10.390;2023-02-28T05:31:11;102876.06;;;-2.42;74.01
76627;BME280;65519;53.230;10.390;2023-02-28T05:33:37;102878.91;;;-2.34;74.21
76627;BME280;65519;53.230;10.390;2023-02-28T05:36:03;102874.19;;;-2.51;74.32
76627;BME280;65519;53.230;10.390;2023-02-28T05:38:28;102876.84;;;-2.51;74.14
76627;BME280;65519;53.230;10.390;2023-02-28T05:40:54;102879.97;;;-2.46;74.44
76627;BME280;65519;53.230;10.390;2023-02-28T05:43:19;102870.59;;;-2.61;74.65
76627;BME280;65519;53.230;10.390;2023-02-28T05:45:44;102867.44;;;-2.66;75.34
76627;BME280;65519;53.230;10.390;2023-02-28T05:48:10;102877.56;;;-2.49;75.35
76627;BME280;65519;53.230;10.390;2023-02-28T05:50:35;102872.06;;;-2.47;75.13
76627;BME280;65519;53.230;10.390;2023-02-28T05:53:01;102876.84;;;-2.51;75.17
76627;BME280;65519;53.230;10.390;2023-02-28T05:55:26;102880.38;;;-2.50;74.63
76627;BME280;65519;53.230;10.390;2023-02-28T05:57:52;102879.59;;;-2.41;74.51
76627;BME280;65519;53.230;10.390;2023-02-28T06:00:17;102880.16;;;-2.59;74.89
76627;BME280;65519;53.230;10.390;2023-02-28T06:02:43;102883.41;;;-2.55;75.00
76627;BME280;65519;53.230;10.390;2023-02-28T06:05:17;102878.91;;;-2.34;73.90
76627;BME280;65519;53.230;10.390;2023-02-28T06:07:43;102884.78;;;-2.40;73.97
76627;BME280;65519;53.230;10.390;2023-02-28T06:10:10;102885.03;;;-2.64;74.29
76627;BME280;65519;53.230;10.390;2023-02-28T06:12:36;102888.91;;;-2.88;75.43
76627;BME280;65519;53.230;10.390;2023-02-28T06:15:01;102886.63;;;-2.61;74.94
76627;BME280;65519;53.230;10.390;2023-02-28T06:17:27;102879.53;;;-2.51;74.09
76627;BME280;65519;53.230;10.390;2023-02-28T06:19:52;102880.88;;;-2.57;74.57
76627;BME280;65519;53.230;10.390;2023-02-28T06:22:18;102883.34;;;-2.44;74.54
76627;BME280;65519;53.230;10.390;2023-02-28T06:24:43;102890.94;;;-2.49;74.76
76627;BME280;65519;53.230;10.390;2023-02-28T06:27:08;102896.44;;;-2.62;75.05
76627;BME280;65519;53.230;10.390;2023-02-28T06:29:34;102895.25;;;-2.69;74.92
76627;BME280;65519;53.230;10.390;2023-02-28T06:32:00;102898.34;;;-2.52;74.74
76627;BME280;65519;53.230;10.390;2023-02-28T06:34:25;102895.59;;;-2.62;74.56
76627;BME280;65519;53.230;10.390;2023-02-28T06:36:52;102909.44;;;-2.68;75.11
76627;BME280;65519;53.230;10.390;2023-02-28T06:39:18;102909.69;;;-2.60;75.07
76627;BME280;65519;53.230;10.390;2023-02-28T06:41:43;102908.03;;;-2.51;74.55
76627;BME280;65519;53.230;10.390;2023-02-28T06:44:16;102917.63;;;-2.49;74.03
76627;BME280;65519;53.230;10.390;2023-02-28T06:46:44;102915.72;;;-2.58;74.64
76627;BME280;65519;53.230;10.390;2023-02-28T06:49:10;102918.06;;;-2.44;74.99
76627;BME280;65519;53.230;10.390;2023-02-28T06:51:38;102918.53;;;-2.39;74.53
76627;BME280;65519;53.230;10.390;2023-02-28T06:54:04;102926.94;;;-2.43;74.56
76627;BME280;65519;53.230;10.390;2023-02-28T06:56:30;102926.63;;;-2.50;74.30
76627;BME280;65519;53.230;10.390;2023-02-28T06:58:55;102926.63;;;-2.50;74.86
76627;BME280;65519;53.230;10.390;2023-02-28T07:01:21;102941.34;;;-2.67;75.28
76627;BME280;65519;53.230;10.390;2023-02-28T07:03:48;102938.47;;;-2.75;76.78
76627;BME280;65519;53.230;10.390;2023-02-28T07:06:18;102939.56;;;-2.77;77.16
76627;BME280;65519;53.230;10.390;2023-02-28T07:08:44;102933.78;;;-2.50;76.70
76627;BME280;65519;53.230;10.390;2023-02-28T07:11:09;102935.13;;;-2.35;76.10
76627;BME280;65519;53.230;10.390;2023-02-28T07:13:35;102933.00;;;-2.21;75.28
76627;BME280;65519;53.230;10.390;2023-02-28T07:16:03;102936.16;;;-2.47;76.61
76627;BME280;65519;53.230;10.390;2023-02-28T07:18:29;102931.19;;;-2.20;77.01
76627;BME280;65519;53.230;10.390;2023-02-28T07:20:55;102935.78;;;-2.01;75.55
76627;BME280;65519;53.230;10.390;2023-02-28T07:23:21;102931.13;;;-2.30;76.44
76627;BME280;65519;53.230;10.390;2023-02-28T07:25:47;102942.44;;;-2.37;77.51
76627;BME280;65519;53.230;10.390;2023-02-28T07:28:13;102933.84;;;-2.41;77.84
76627;BME280;65519;53.230;10.390;2023-02-28T07:30:38;102927.78;;;-2.43;77.69
76627;BME280;65519;53.230;10.390;2023-02-28T07:33:04;102937.00;;;-2.47;78.37
76627;BME280;65519;53.230;10.390;2023-02-28T07:35:30;102938.41;;;-2.32;78.46
76627;BME280;65519;53.230;10.390;2023-02-28T07:37:57;102933.97;;;-2.22;77.91
76627;BME280;65519;53.230;10.390;2023-02-28T07:40:22;102935.34;;;-2.06;77.60
76627;BME280;65519;53.230;10.390;2023-02-28T07:42:48;102937.44;;;-1.79;77.05
76627;BME280;65519;53.230;10.390;2023-02-28T07:45:13;102936.00;;;-1.84;77.33
76627;BME280;65519;53.230;10.390;2023-02-28T07:47:39;102935.75;;;-1.80;77.84
76627;BME280;65519;53.230;10.390;2023-02-28T07:50:08;102936.22;;;-1.75;78.20
76627;BME280;65519;53.230;10.390;2023-02-28T07:52:34;102934.97;;;-1.62;77.66
76627;BME280;65519;53.230;10.390;2023-02-28T07:54:59;102944.97;;;-1.33;76.60
76627;BME280;65519;53.230;10.390;2023-02-28T07:57:24;102943.66;;;-1.39;77.48
76627;BME280;65519;53.230;10.390;2023-02-28T07:59:50;102937.56;;;-1.51;78.20
76627;BME280;65519;53.230;10.390;2023-02-28T08:02:17;102946.03;;;-1.45;78.88
76627;BME280;65519;53.230;10.390;2023-02-28T08:04:43;102951.44;;;-1.26;79.02
76627;BME280;65519;53.230;10.390;2023-02-28T08:07:09;102942.09;;;-1.01;78.28
76627;BME280;65519;53.230;10.390;2023-02-28T08:09:38;102941.69;;;-0.78;77.02
76627;BME280;65519;53.230;10.390;2023-02-28T08:12:03;102934.34;;;-0.76;77.43
76627;BME280;65519;53.230;10.390;2023-02-28T08:14:29;102941.41;;;-0.75;77.59
76627;BME280;65519;53.230;10.390;2023-02-28T08:16:54;102938.44;;;-0.71;77.95
76627;BME280;65519;53.230;10.390;2023-02-28T08:19:20;102941.44;;;-0.55;78.16
76627;BME280;65519;53.230;10.390;2023-02-28T08:21:45;102943.13;;;-0.54;78.05
76627;BME280;65519;53.230;10.390;2023-02-28T08:24:10;102942.09;;;-0.53;78.53
76627;BME280;65519;53.230;10.390;2023-02-28T08:26:36;102941.56;;;-0.38;78.35
76627;BME280;65519;53.230;10.390;2023-02-28T08:29:01;102944.34;;;-0.29;78.00
76627;BME280;65519;53.230;10.390;2023-02-28T08:31:26;102950.09;;;-0.05;76.63
76627;BME280;65519;53.230;10.390;2023-02-28T08:33:52;102943.31;;;0.00;76.34
76627;BME280;65519;53.230;10.390;2023-02-28T08:36:20;102939.63;;;0.11;75.51
76627;BME280;65519;53.230;10.390;2023-02-28T08:38:45;102944.72;;;0.05;76.28
76627;BME280;65519;53.230;10.390;2023-02-28T08:41:12;102949.75;;;0.27;76.29
76627;BME280;65519;53.230;10.390;2023-02-28T08:43:38;102943.22;;;0.39;76.08
76627;BME280;65519;53.230;10.390;2023-02-28T08:46:06;102948.63;;;0.57;75.28
76627;BME280;65519;53.230;10.390;2023-02-28T08:48:34;102946.41;;;0.80;74.35
76627;BME280;65519;53.230;10.390;2023-02-28T08:51:02;102946.91;;;0.93;73.86
76627;BME280;65519;53.230;10.390;2023-02-28T08:53:28;102942.59;;;1.00;72.88
76627;BME280;65519;53.230;10.390;2023-02-28T08:56:05;102939.53;;;0.95;73.71
76627;BME280;65519;53.230;10.390;2023-02-28T08:58:30;102942.84;;;1.06;73.73
76627;BME280;65519;53.230;10.390;2023-02-28T09:00:56;102947.16;;;1.17;73.19
76627;BME280;65519;53.230;10.390;2023-02-28T09:03:22;102948.69;;;1.20;72.86
76627;BME280;65519;53.230;10.390;2023-02-28T09:05:59;102951.88;;;1.51;72.65
76627;BME280;65519;53.230;10.390;2023-02-28T09:08:28;102959.06;;;1.68;72.55
76627;BME280;65519;53.230;10.390;2023-02-28T09:10:55;102952.13;;;1.83;72.44
76627;BME280;65519;53.230;10.390;2023-02-28T09:13:26;102946.84;;;1.99;72.32
76627;BME280;65519;53.230;10.390;2023-02-28T09:15:52;102948.50;;;2.18;71.34
76627;BME280;65519;53.230;10.390;2023-02-28T09:18:17;102951.44;;;2.33;69.59
76627;BME280;65519;53.230;10.390;2023-02-28T09:20:43;102948.00;;;2.48;69.48
76627;BME280;65519;53.230;10.390;2023-02-28T09:23:10;102951.22;;;2.52;68.23
76627;BME280;65519;53.230;10.390;2023-02-28T09:25:36;102948.09;;;2.73;67.54
76627;BME280;65519;53.230;10.390;2023-02-28T09:28:02;102948.34;;;2.87;66.87
76627;BME280;65519;53.230;10.390;2023-02-28T09:30:29;102950.56;;;2.92;66.72
76627;BME280;65519;53.230;10.390;2023-02-28T09:32:55;102948.50;;;2.94;66.02
76627;BME280;65519;53.230;10.390;2023-02-28T09:35:21;102950.28;;;3.19;65.87
76627;BME280;65519;53.230;10.390;2023-02-28T09:37:49;102954.50;;;3.38;63.57
76627;BME280;65519;53.230;10.390;2023-02-28T09:40:15;102950.16;;;3.53;63.15
76627;BME280;65519;53.230;10.390;2023-02-28T09:42:43;102952.53;;;3.64;62.72
76627;BME280;65519;53.230;10.390;2023-02-28T09:45:24;102952.19;;;3.84;62.67
76627;BME280;65519;53.230;10.390;2023-02-28T09:47:54;102948.66;;;3.99;61.02
76627;BME280;65519;53.230;10.390;2023-02-28T09:50:38;102945.06;;;4.15;58.70
76627;BME280;65519;53.230;10.390;2023-02-28T09:53:31;102946.06;;;4.30;56.84
76627;BME280;65519;53.230;10.390;2023-02-28T10:01:17;102957.59;;;4.63;55.67
76627;BME280;65519;53.230;10.390;2023-02-28T10:04:10;102951.06;;;4.89;56.35
76627;BME280;65519;53.230;10.390;2023-02-28T10:06:44;102953.34;;;5.08;51.22
76627;BME280;65519;53.230;10.390;2023-02-28T10:09:16;102962.59;;;5.13;50.80
76627;BME280;65519;53.230;10.390;2023-02-28T10:11:44;102959.97;;;5.28;51.23
76627;BME280;65519;53.230;10.390;2023-02-28T10:14:15;102960.34;;;5.48;51.10
76627;BME280;65519;53.230;10.390;2023-02-28T10:16:52;102963.34;;;5.53;48.29
76627;BME280;65519;53.230;10.390;2023-02-28T10:19:20;102962.63;;;5.59;48.16
76627;BME280;65519;53.230;10.390;2023-02-28T10:21:54;102964.91;;;5.70;49.36
76627;BME280;65519;53.230;10.390;2023-02-28T10:24:44;102954.56;;;5.97;48.05
76627;BME280;65519;53.230;10.390;2023-02-28T10:27:15;102955.88;;;6.01;46.08
76627;BME280;65519;53.230;10.390;2023-02-28T10:29:49;102950.94;;;6.04;46.54
76627;BME280;65519;53.230;10.390;2023-02-28T10:32:21;102957.78;;;6.30;46.70
76627;BME280;65519;53.230;10.390;2023-02-28T10:37:48;102956.88;;;6.67;45.37
76627;BME280;65519;53.230;10.390;2023-02-28T10:42:55;102941.63;;;6.80;44.38
76627;BME280;65519;53.230;10.390;2023-02-28T10:45:20;102938.66;;;7.11;45.54
76627;BME280;65519;53.230;10.390;2023-02-28T10:47:55;102938.41;;;7.27;45.24
76627;BME280;65519;53.230;10.390;2023-02-28T10:55:43;102933.19;;;7.47;43.67
76627;BME280;65519;53.230;10.390;2023-02-28T10:58:21;102938.94;;;7.59;43.26
76627;BME280;65519;53.230;10.390;2023-02-28T11:00:48;102942.56;;;7.66;43.66
76627;BME280;65519;53.230;10.390;2023-02-28T11:03:42;102937.38;;;7.71;42.29
76627;BME280;65519;53.230;10.390;2023-02-28T11:06:14;102933.91;;;7.77;42.19
76627;BME280;65519;53.230;10.390;2023-02-28T11:08:45;102935.97;;;7.75;41.36
76627;BME280;65519;53.230;10.390;2023-02-28T11:11:12;102930.56;;;7.82;41.57
76627;BME280;65519;53.230;10.390;2023-02-28T11:13:37;102931.56;;;7.74;40.91
76627;BME280;65519;53.230;10.390;2023-02-28T11:16:07;102929.63;;;7.89;42.05
76627;BME280;65519;53.230;10.390;2023-02-28T11:18:54;102920.88;;;8.22;42.08
76627;BME280;65519;53.230;10.390;2023-02-28T11:23:51;102918.19;;;8.28;41.10
76627;BME280;65519;53.230;10.390;2023-02-28T11:26:35;102921.09;;;8.27;40.27
76627;BME280;65519;53.230;10.390;2023-02-28T11:29:09;102913.25;;;8.38;39.69
76627;BME280;65519;53.230;10.390;2023-02-28T11:31:36;102916.47;;;8.55;39.78
76627;BME280;65519;53.230;10.390;2023-02-28T11:34:01;102924.47;;;8.63;39.50
76627;BME280;65519;53.230;10.390;2023-02-28T11:36:29;102918.03;;;8.77;37.94
76627;BME280;65519;53.230;10.390;2023-02-28T11:39:09;102912.84;;;8.83;37.71
76627;BME280;65519;53.230;10.390;2023-02-28T11:44:58;102911.75;;;8.77;38.16
76627;BME280;65519;53.230;10.390;2023-02-28T11:50:48;102910.34;;;8.88;39.80
76627;BME280;65519;53.230;10.390;2023-02-28T11:53:39;102909.94;;;8.91;38.98
76627;BME280;65519;53.230;10.390;2023-02-28T12:01:45;102904.56;;;9.04;37.67
76627;BME280;65519;53.230;10.390;2023-02-28T12:07:02;102893.06;;;9.15;38.82
76627;BME280;65519;53.230;10.390;2023-02-28T12:12:42;102888.69;;;9.27;38.15
76627;BME280;65519;53.230;10.390;2023-02-28T12:15:43;102894.16;;;9.53;37.02
76627;BME280;65519;53.230;10.390;2023-02-28T12:26:41;102870.72;;;9.66;35.41
76627;BME280;65519;53.230;10.390;2023-02-28T12:32:06;102873.03;;;9.69;35.21
76627;BME280;65519;53.230;10.390;2023-02-28T12:34:41;102854.38;;;9.79;35.84
76627;BME280;65519;53.230;10.390;2023-02-28T12:37:15;102852.69;;;9.78;34.45
76627;BME280;65519;53.230;10.390;2023-02-28T12:39:45;102852.91;;;9.70;35.86
76627;BME280;65519;53.230;10.390;2023-02-28T12:47:16;102841.53;;;9.99;34.92
76627;BME280;65519;53.230;10.390;2023-02-28T13:00:20;102806.94;;;10.26;36.48
76627;BME280;65519;53.230;10.390;2023-02-28T13:10:50;102789.94;;;10.24;35.15
76627;BME280;65519;53.230;10.390;2023-02-28T13:13:22;102793.63;;;10.43;35.14
76627;BME280;65519;53.230;10.390;2023-02-28T13:18:33;102784.88;;;10.28;35.18
76627;BME280;65519;53.230;10.390;2023-02-28T13:21:01;102781.34;;;10.20;35.58
76627;BME280;65519;53.230;10.390;2023-02-28T13:26:12;102788.06;;;10.18;35.04
76627;BME280;65519;53.230;10.390;2023-02-28T13:31:25;102801.72;;;10.63;35.53
76627;BME280;65519;53.230;10.390;2023-02-28T13:38:59;102798.41;;;10.54;34.02
76627;BME280;65519;53.230;10.390;2023-02-28T14:05:18;102780.84;;;12.35;31.69
76627;BME280;65519;53.230;10.390;2023-02-28T14:07:52;102784.97;;;12.08;32.02
76627;BME280;65519;53.230;10.390;2023-02-28T14:18:05;102779.56;;;12.01;31.87
76627;BME280;65519;53.230;10.390;2023-02-28T14:20:36;102779.88;;;12.12;33.08
76627;BME280;65519;53.230;10.390;2023-02-28T14:26:28;102787.78;;;12.98;31.40
76627;BME280;65519;53.230;10.390;2023-02-28T14:34:53;102789.91;;;12.66;30.91
76627;BME280;65519;53.230;10.390;2023-02-28T14:37:28;102788.09;;;12.90;31.52
76627;BME280;65519;53.230;10.390;2023-02-28T14:39:56;102785.84;;;12.98;31.13
76627;BME280;65519;53.230;10.390;2023-02-28T14:42:49;102788.94;;;13.02;31.72
76627;BME280;65519;53.230;10.390;2023-02-28T14:45:20;102789.38;;;12.87;31.78
76627;BME280;65519;53.230;10.390;2023-02-28T14:47:47;102787.78;;;13.09;30.66
76627;BME280;65519;53.230;10.390;2023-02-28T14:50:18;102772.25;;;14.32;29.58
76627;BME280;65519;53.230;10.390;2023-02-28T14:52:44;102774.53;;;16.14;26.68
76627;BME280;65519;53.230;10.390;2023-02-28T14:55:14;102767.75;;;18.90;22.39
76627;BME280;65519;53.230;10.390;2023-02-28T14:57:43;102772.66;;;18.73;22.27
76627;BME280;65519;53.230;10.390;2023-02-28T15:02:42;102783.47;;;12.60;30.69
76627;BME280;65519;53.230;10.390;2023-02-28T15:07:40;102787.44;;;10.98;32.92
76627;BME280;65519;53.230;10.390;2023-02-28T15:10:26;102795.31;;;10.44;34.35
76627;BME280;65519;53.230;10.390;2023-02-28T15:12:56;102793.53;;;9.98;36.18
76627;BME280;65519;53.230;10.390;2023-02-28T15:15:26;102789.22;;;9.84;36.93
76627;BME280;65519;53.230;10.390;2023-02-28T15:17:54;102797.00;;;9.61;37.14
76627;BME280;65519;53.230;10.390;2023-02-28T15:20:21;102797.41;;;9.18;37.34
76627;BME280;65519;53.230;10.390;2023-02-28T15:22:50;102795.69;;;8.91;37.33
76627;BME280;65519;53.230;10.390;2023-02-28T15:25:20;102801.84;;;8.45;39.03
76627;BME280;65519;53.230;10.390;2023-02-28T15:27:50;102788.31;;;8.58;38.24
76627;BME280;65519;53.230;10.390;2023-02-28T15:30:30;102792.84;;;8.03;39.78
76627;BME280;65519;53.230;10.390;2023-02-28T15:35:36;102786.44;;;7.77;40.15
76627;BME280;65519;53.230;10.390;2023-02-28T15:38:13;102780.38;;;7.47;40.57
76627;BME280;65519;53.230;10.390;2023-02-28T15:40:45;102772.59;;;7.16;40.08
76627;BME280;65519;53.230;10.390;2023-02-28T15:46:01;102775.09;;;6.89;42.27
76627;BME280;65519;53.230;10.390;2023-02-28T15:48:36;102775.41;;;7.01;41.49
76627;BME280;65519;53.230;10.390;2023-02-28T15:53:45;102768.13;;;6.80;41.76
76627;BME280;65519;53.230;10.390;2023-02-28T15:56:24;102773.34;;;6.82;41.03
76627;BME280;65519;53.230;10.390;2023-02-28T15:58:53;102763.22;;;6.69;41.29
76627;BME280;65519;53.230;10.390;2023-02-28T16:01:35;102768.56;;;6.84;40.78
76627;BME280;65519;53.230;10.390;2023-02-28T16:04:03;102761.22;;;6.56;41.36